PIA454 OPSD-OPLA
Flight info
| Callsign | PIA454 |
|---|---|
| Flight time | N/A |
| Altitude | 38000 |
| Route | DELDA J125 RN Z306 INDEK J121 AKBER |
| Aircraft | B772/H-SDE2E3FGHIJ5LORVWXY/LB1D1 |
Departure
| Time | 2026-04-30 14:16 |
|---|---|
| Airport | Skardu International Airport (OPSD) |
Arrival
| Time | N/A |
|---|---|
| Airport | Allama Iqbal International Airport (OPLA) |
| Time | Latitude | Longitude | Altitude | Speed | Heading |
|---|---|---|---|---|---|
| 2026-04-30 13:57 | 35.33116 | 75.54173 | 7366 ft | 0 kts | 147° |
| 2026-04-30 14:12 | 35.33115 | 75.54173 | 7362 ft | 1 kts | 148° |
| 2026-04-30 14:12 | 35.33098 | 75.54163 | 7359 ft | 8 kts | 231° |
| 2026-04-30 14:13 | 35.33164 | 75.54194 | 7356 ft | 23 kts | 54° |
| 2026-04-30 14:13 | 35.33288 | 75.54423 | 7357 ft | 36 kts | 58° |
| 2026-04-30 14:13 | 35.33303 | 75.54654 | 7358 ft | 29 kts | 150° |
| 2026-04-30 14:13 | 35.33122 | 75.54791 | 7358 ft | 34 kts | 147° |
| 2026-04-30 14:14 | 35.32991 | 75.54895 | 7357 ft | 33 kts | 147° |
| 2026-04-30 14:14 | 35.32753 | 75.55084 | 7358 ft | 27 kts | 147° |
| 2026-04-30 14:14 | 35.32634 | 75.55231 | 7356 ft | 17 kts | 124° |
| 2026-04-30 14:14 | 35.32602 | 75.55205 | 7356 ft | 9 kts | 311° |
| 2026-04-30 14:15 | 35.32621 | 75.55191 | 7355 ft | 0 kts | 327° |
| 2026-04-30 14:15 | 35.32648 | 75.55169 | 7357 ft | 17 kts | 327° |
| 2026-04-30 14:15 | 35.32808 | 75.55040 | 7358 ft | 74 kts | 327° |
| 2026-04-30 14:15 | 35.33510 | 75.54487 | 7356 ft | 166 kts | 327° |
| 2026-04-30 14:16 | 35.34648 | 75.53681 | 7904 ft | 203 kts | 336° |
| 2026-04-30 14:16 | 35.35992 | 75.53017 | 9073 ft | 208 kts | 339° |
| 2026-04-30 14:16 | 35.37276 | 75.52445 | 10545 ft | 186 kts | 338° |
| 2026-04-30 14:16 | 35.38405 | 75.51758 | 11787 ft | 181 kts | 330° |
| 2026-04-30 14:17 | 35.39455 | 75.50820 | 12582 ft | 190 kts | 321° |
| 2026-04-30 14:17 | 35.40406 | 75.49783 | 13582 ft | 176 kts | 321° |
| 2026-04-30 14:17 | 35.41355 | 75.48847 | 14200 ft | 180 kts | 326° |
| 2026-04-30 14:17 | 35.42377 | 75.47896 | 14588 ft | 187 kts | 321° |
| 2026-04-30 14:18 | 35.43273 | 75.46741 | 15136 ft | 188 kts | 313° |
| 2026-04-30 14:18 | 35.44119 | 75.45506 | 15631 ft | 189 kts | 312° |
| 2026-04-30 14:18 | 35.45725 | 75.42901 | 16508 ft | 200 kts | 302° |
| 2026-04-30 14:19 | 35.47145 | 75.39474 | 16901 ft | 250 kts | 298° |
| 2026-04-30 14:19 | 35.47947 | 75.37461 | 17104 ft | 276 kts | 297° |
| 2026-04-30 14:19 | 35.48822 | 75.35269 | 17487 ft | 293 kts | 297° |
| 2026-04-30 14:20 | 35.49743 | 75.32974 | 18055 ft | 303 kts | 298° |
| 2026-04-30 14:20 | 35.50674 | 75.30663 | 18696 ft | 308 kts | 298° |
| 2026-04-30 14:20 | 35.52642 | 75.25797 | 19556 ft | 339 kts | 297° |
| 2026-04-30 14:21 | 35.53728 | 75.23108 | 19731 ft | 364 kts | 297° |
| 2026-04-30 14:21 | 35.54883 | 75.20230 | 19885 ft | 388 kts | 297° |
| 2026-04-30 14:21 | 35.57313 | 75.14070 | 20956 ft | 408 kts | 296° |
| 2026-04-30 14:22 | 35.58551 | 75.10955 | 21677 ft | 412 kts | 296° |
| 2026-04-30 14:22 | 35.61105 | 75.04584 | 23082 ft | 420 kts | 296° |
| 2026-04-30 14:22 | 35.62406 | 75.01343 | 23718 ft | 425 kts | 296° |
| 2026-04-30 14:23 | 35.65044 | 74.94756 | 24906 ft | 432 kts | 295° |
| 2026-04-30 14:23 | 35.67714 | 74.88067 | 26111 ft | 439 kts | 295° |
| 2026-04-30 14:24 | 35.70149 | 74.81161 | 27075 ft | 443 kts | 280° |
| 2026-04-30 14:24 | 35.70267 | 74.77360 | 27491 ft | 448 kts | 263° |
| 2026-04-30 14:25 | 35.68137 | 74.70217 | 28719 ft | 451 kts | 239° |
| 2026-04-30 14:25 | 35.64918 | 74.63524 | 29825 ft | 458 kts | 240° |
| 2026-04-30 14:26 | 35.61265 | 74.57098 | 30726 ft | 465 kts | 229° |
| 2026-04-30 14:26 | 35.59058 | 74.54180 | 31222 ft | 466 kts | 227° |
| 2026-04-30 14:26 | 35.54565 | 74.48365 | 32020 ft | 472 kts | 228° |
| 2026-04-30 14:27 | 35.52308 | 74.45432 | 32383 ft | 474 kts | 228° |
| 2026-04-30 14:27 | 35.50047 | 74.42482 | 32848 ft | 473 kts | 229° |
| 2026-04-30 14:27 | 35.47797 | 74.39545 | 33442 ft | 471 kts | 229° |
| 2026-04-30 14:28 | 35.43331 | 74.33699 | 34444 ft | 468 kts | 230° |
| 2026-04-30 14:28 | 35.41133 | 74.30820 | 34878 ft | 467 kts | 231° |
| 2026-04-30 14:28 | 35.38903 | 74.27903 | 35302 ft | 467 kts | 231° |
| 2026-04-30 14:28 | 35.36679 | 74.24999 | 35717 ft | 467 kts | 232° |
| 2026-04-30 14:29 | 35.32234 | 74.19205 | 36585 ft | 465 kts | 233° |
| 2026-04-30 14:29 | 35.27794 | 74.13424 | 37484 ft | 463 kts | 234° |
| 2026-04-30 14:30 | 35.21152 | 74.04788 | 37981 ft | 469 kts | 234° |
| 2026-04-30 14:31 | 35.16748 | 73.99034 | 37974 ft | 460 kts | 235° |
| 2026-04-30 14:31 | 35.10214 | 73.90333 | 38016 ft | 467 kts | 235° |
| 2026-04-30 14:32 | 35.03589 | 73.81547 | 38060 ft | 466 kts | 235° |
| 2026-04-30 14:33 | 34.99215 | 73.75785 | 38065 ft | 462 kts | 235° |
| 2026-04-30 14:33 | 34.92663 | 73.67152 | 38050 ft | 468 kts | 235° |
| 2026-04-30 14:34 | 34.88242 | 73.61339 | 38051 ft | 465 kts | 234° |
| 2026-04-30 14:34 | 34.83919 | 73.55678 | 38114 ft | 450 kts | 236° |
| 2026-04-30 14:35 | 34.79343 | 73.50197 | 37979 ft | 476 kts | 225° |
| 2026-04-30 14:35 | 34.76539 | 73.47982 | 38058 ft | 484 kts | 219° |
| 2026-04-30 14:35 | 34.73521 | 73.46060 | 38037 ft | 496 kts | 212° |
| 2026-04-30 14:36 | 34.70286 | 73.44498 | 37981 ft | 504 kts | 209° |
| 2026-04-30 14:36 | 34.63760 | 73.41702 | 37983 ft | 496 kts | 208° |
| 2026-04-30 14:37 | 34.57267 | 73.38907 | 37960 ft | 495 kts | 209° |
| 2026-04-30 14:37 | 34.50782 | 73.36027 | 37943 ft | 496 kts | 209° |
| 2026-04-30 14:38 | 34.44293 | 73.33134 | 37917 ft | 497 kts | 209° |
| 2026-04-30 14:38 | 34.37800 | 73.30255 | 37901 ft | 497 kts | 209° |
| 2026-04-30 14:39 | 34.31240 | 73.27513 | 37894 ft | 501 kts | 206° |
| 2026-04-30 14:39 | 34.24563 | 73.25062 | 37896 ft | 498 kts | 208° |
| 2026-04-30 14:40 | 34.14853 | 73.20797 | 37850 ft | 497 kts | 210° |
| 2026-04-30 14:40 | 34.08314 | 73.18016 | 37852 ft | 501 kts | 207° |
| 2026-04-30 14:41 | 34.01398 | 73.16164 | 37855 ft | 517 kts | 195° |
| 2026-04-30 14:41 | 33.94167 | 73.15514 | 37836 ft | 523 kts | 192° |
| 2026-04-30 14:42 | 33.86911 | 73.14954 | 37828 ft | 521 kts | 193° |
| 2026-04-30 14:42 | 33.79674 | 73.14325 | 37821 ft | 520 kts | 193° |
| 2026-04-30 14:43 | 33.72461 | 73.13668 | 37810 ft | 520 kts | 193° |
| 2026-04-30 14:43 | 33.65289 | 73.13019 | 37806 ft | 520 kts | 193° |
| 2026-04-30 14:44 | 33.57991 | 73.12935 | 37812 ft | 532 kts | 183° |
| 2026-04-30 14:44 | 33.50601 | 73.14191 | 37784 ft | 538 kts | 179° |
| 2026-04-30 14:45 | 33.43199 | 73.15517 | 37784 ft | 537 kts | 180° |
| 2026-04-30 14:45 | 33.35793 | 73.16739 | 37775 ft | 537 kts | 180° |
| 2026-04-30 14:46 | 33.28430 | 73.17970 | 37778 ft | 536 kts | 179° |
| 2026-04-30 14:46 | 33.21035 | 73.19210 | 37775 ft | 536 kts | 179° |
| 2026-04-30 14:47 | 33.13649 | 73.20445 | 37773 ft | 535 kts | 179° |
| 2026-04-30 14:47 | 33.06315 | 73.21670 | 37748 ft | 535 kts | 179° |
| 2026-04-30 14:48 | 32.98939 | 73.22902 | 37766 ft | 534 kts | 179° |
| 2026-04-30 14:48 | 32.91584 | 73.24129 | 37760 ft | 533 kts | 179° |
| 2026-04-30 14:49 | 32.84227 | 73.25349 | 37753 ft | 534 kts | 179° |
| 2026-04-30 14:49 | 32.76959 | 73.27561 | 37743 ft | 550 kts | 162° |
| 2026-04-30 14:50 | 32.70263 | 73.32123 | 37749 ft | 561 kts | 146° |
| 2026-04-30 14:50 | 32.67183 | 73.34966 | 37758 ft | 562 kts | 144° |
| 2026-04-30 14:51 | 32.57957 | 73.43619 | 37734 ft | 564 kts | 145° |
| 2026-04-30 14:52 | 32.48615 | 73.52120 | 37732 ft | 565 kts | 146° |
| 2026-04-30 14:52 | 32.39235 | 73.60570 | 37722 ft | 565 kts | 146° |
| 2026-04-30 14:53 | 32.29904 | 73.68972 | 37712 ft | 563 kts | 145° |
| 2026-04-30 14:54 | 32.17449 | 73.80164 | 37711 ft | 562 kts | 146° |
| 2026-04-30 14:55 | 32.08099 | 73.88535 | 37694 ft | 562 kts | 145° |
| 2026-04-30 14:56 | 32.02463 | 73.93571 | 37697 ft | 562 kts | 146° |
| 2026-04-30 15:17 | 31.88428 | 74.06274 | 37075 ft | 551 kts | 143° |
| 2026-04-30 15:18 | 31.71307 | 74.15302 | 33978 ft | 521 kts | 169° |
| 2026-04-30 15:19 | 31.61350 | 74.19181 | 33107 ft | 498 kts | 167° |